Time;durP1;ratioP1;P1;durP2;ratioP2;P2;SDS_P1;SDS_P2;PMS_P1;PMS_P2;Temp;Humidity;BMP_temperature;BMP_pressure;BME280_temperature;BME280_humidity;BME280_pressure;Samples;Min_cycle;Max_cycle;Signal;HPM_P1;HPM_P2
2022/08/17 00:01:56;;;;;;;88.32;68.88;;;;;;;;;;4948955;28;20062;-78
2022/08/17 00:04:22;;;;;;;89.75;69.78;;;;;;;;;;4951170;28;20440;-78
2022/08/17 00:06:49;;;;;;;88.63;65.25;;;;;;;;;;4949468;28;20047;-78
2022/08/17 00:09:16;;;;;;;88.75;66.68;;;;;;;;;;4968199;28;20047;-78
2022/08/17 00:11:44;;;;;;;88.25;66.70;;;;;;;;;;4967588;28;20113;-78
2022/08/17 00:14:12;;;;;;;91.72;68.55;;;;;;;;;;4968609;28;20055;-78
2022/08/17 00:16:40;;;;;;;85.63;65.47;;;;;;;;;;4961333;28;20114;-78
2022/08/17 00:19:08;;;;;;;81.03;61.03;;;;;;;;;;4966571;28;20023;-78
2022/08/17 00:21:35;;;;;;;81.88;62.72;;;;;;;;;;4970754;28;20039;-78
2022/08/17 00:24:01;;;;;;;77.40;62.88;;;;;;;;;;4968484;28;20049;-78
2022/08/17 00:26:27;;;;;;;83.65;62.22;;;;;;;;;;4967621;28;20023;-77
2022/08/17 00:28:53;;;;;;;79.95;60.70;;;;;;;;;;4976900;28;20030;-77
2022/08/17 00:31:20;;;;;;;78.88;61.08;;;;;;;;;;4981205;28;20050;-78
2022/08/17 00:33:46;;;;;;;77.03;59.88;;;;;;;;;;4992409;28;20042;-77
2022/08/17 00:36:13;;;;;;;85.65;61.13;;;;;;;;;;4967486;28;20471;-77
2022/08/17 00:38:40;;;;;;;75.45;59.45;;;;;;;;;;5035194;28;20067;-78
2022/08/17 00:41:11;;;;;;;72.75;56.83;;;;;;;;;;4949226;28;20054;-78
2022/08/17 00:44:10;;;;;;;81.20;60.10;;;;;;;;;;4968313;28;20120;-78
2022/08/17 00:46:39;;;;;;;78.50;59.33;;;;;;;;;;4936019;28;20035;-77
2022/08/17 00:49:06;;;;;;;81.88;61.15;;;;;;;;;;4968185;28;20015;-77
2022/08/17 00:51:50;;;;;;;80.80;59.95;;;;;;;;;;4950356;28;20043;-78
2022/08/17 00:54:24;;;;;;;72.93;59.53;;;;;;;;;;4960583;28;20046;-78
2022/08/17 00:56:53;;;;;;;77.85;58.45;;;;;;;;;;4968386;28;20045;-78
2022/08/17 00:59:21;;;;;;;80.88;59.80;;;;;;;;;;4966555;28;20437;-77
2022/08/17 01:01:48;;;;;;;75.95;58.70;;;;;;;;;;4975601;28;20462;-77
2022/08/17 01:04:15;;;;;;;71.00;55.53;;;;;;;;;;4970588;28;20104;-78
2022/08/17 01:06:41;;;;;;;72.80;56.30;;;;;;;;;;4969671;28;20037;-78
2022/08/17 01:09:08;;;;;;;73.63;57.15;;;;;;;;;;4971496;28;20051;-78
2022/08/17 01:11:36;;;;;;;77.75;56.72;;;;;;;;;;4956772;28;20115;-78
2022/08/17 01:14:02;;;;;;;68.25;55.80;;;;;;;;;;4953669;28;20438;-78
2022/08/17 01:16:30;;;;;;;71.30;58.85;;;;;;;;;;4951852;28;20085;-78
2022/08/17 01:19:02;;;;;;;76.22;56.03;;;;;;;;;;4968955;28;20027;-78
2022/08/17 01:21:32;;;;;;;70.82;54.60;;;;;;;;;;4950406;28;20128;-78
2022/08/17 01:23:59;;;;;;;76.53;55.92;;;;;;;;;;4961868;28;20062;-78
2022/08/17 01:26:26;;;;;;;68.72;54.03;;;;;;;;;;4969003;28;20618;-78
2022/08/17 01:28:52;;;;;;;71.40;53.97;;;;;;;;;;4971774;28;20031;-78
2022/08/17 01:31:18;;;;;;;70.85;53.80;;;;;;;;;;4964938;28;20389;-78
2022/08/17 01:33:44;;;;;;;61.13;51.75;;;;;;;;;;4969241;28;20026;-78
2022/08/17 01:36:10;;;;;;;67.68;52.22;;;;;;;;;;4973826;28;20039;-78
2022/08/17 01:38:37;;;;;;;64.95;51.38;;;;;;;;;;4947558;28;20080;-78
2022/08/17 01:41:09;;;;;;;60.00;47.42;;;;;;;;;;4936661;28;20057;-78
2022/08/17 01:43:39;;;;;;;58.22;47.08;;;;;;;;;;4970393;28;20030;-77
2022/08/17 01:46:05;;;;;;;57.10;47.30;;;;;;;;;;4953010;28;20023;-78
2022/08/17 01:48:33;;;;;;;54.70;46.45;;;;;;;;;;4963997;28;20605;-77
2022/08/17 01:50:59;;;;;;;51.80;44.72;;;;;;;;;;5034942;28;20043;-78
2022/08/17 01:53:31;;;;;;;55.63;45.53;;;;;;;;;;4960271;28;20039;-77
2022/08/17 01:56:16;;;;;;;54.88;45.65;;;;;;;;;;4968684;28;20126;-79
2022/08/17 01:58:43;;;;;;;57.83;46.58;;;;;;;;;;4955738;28;20034;-80
2022/08/17 02:01:11;;;;;;;58.70;48.05;;;;;;;;;;4952730;28;20060;-78
2022/08/17 02:03:37;;;;;;;62.47;50.78;;;;;;;;;;4969345;28;20054;-80
2022/08/17 02:06:05;;;;;;;71.55;55.40;;;;;;;;;;4968736;28;20030;-79
2022/08/17 02:08:34;;;;;;;75.78;57.95;;;;;;;;;;4957217;28;20485;-80
2022/08/17 02:11:01;;;;;;;78.25;57.80;;;;;;;;;;4969729;28;20042;-79
2022/08/17 02:13:28;;;;;;;82.45;61.42;;;;;;;;;;4964119;28;20245;-78
2022/08/17 02:15:55;;;;;;;83.45;63.10;;;;;;;;;;4953692;28;20069;-77
2022/08/17 02:18:21;;;;;;;75.63;60.47;;;;;;;;;;4963895;28;20039;-78
2022/08/17 02:20:47;;;;;;;85.38;65.43;;;;;;;;;;4952921;28;20549;-78
2022/08/17 02:23:13;;;;;;;80.28;61.85;;;;;;;;;;4968655;28;20042;-78
2022/08/17 02:25:42;;;;;;;90.80;67.20;;;;;;;;;;4970529;28;20059;-77
2022/08/17 02:28:08;;;;;;;91.50;69.60;;;;;;;;;;4962103;28;20027;-77
2022/08/17 02:30:35;;;;;;;95.32;70.78;;;;;;;;;;4969930;28;20038;-77
2022/08/17 02:33:02;;;;;;;97.05;71.45;;;;;;;;;;4952532;28;20026;-80
2022/08/17 02:35:28;;;;;;;110.18;74.22;;;;;;;;;;5037488;28;20038;-79
2022/08/17 02:37:54;;;;;;;106.63;73.15;;;;;;;;;;4969759;28;20027;-79
2022/08/17 02:40:20;;;;;;;107.40;76.43;;;;;;;;;;4982130;28;20400;-79
2022/08/17 02:42:47;;;;;;;116.47;80.30;;;;;;;;;;4948855;28;20028;-78
2022/08/17 02:45:18;;;;;;;121.38;81.88;;;;;;;;;;4970528;28;20027;-78
2022/08/17 02:47:45;;;;;;;120.82;82.13;;;;;;;;;;4965143;28;20038;-79
2022/08/17 02:50:13;;;;;;;121.85;83.35;;;;;;;;;;4968059;28;20046;-78
2022/08/17 02:52:40;;;;;;;131.20;87.85;;;;;;;;;;4968643;28;20113;-78
2022/08/17 02:55:07;;;;;;;140.05;90.43;;;;;;;;;;4968272;28;20446;-78
2022/08/17 02:57:35;;;;;;;133.35;89.25;;;;;;;;;;4965937;28;20034;-86
2022/08/17 03:00:02;;;;;;;131.48;87.95;;;;;;;;;;4933301;29;20035;-87
2022/08/17 03:02:29;;;;;;;133.10;87.07;;;;;;;;;;4964953;28;20038;-86
2022/08/17 03:04:55;;;;;;;126.32;84.70;;;;;;;;;;4950407;28;20101;-86
2022/08/17 03:07:21;;;;;;;128.55;83.25;;;;;;;;;;4973138;28;20025;-87
2022/08/17 03:09:47;;;;;;;122.40;79.95;;;;;;;;;;4952106;28;20035;-78
2022/08/17 03:12:13;;;;;;;130.27;85.95;;;;;;;;;;4968403;28;20469;-78
2022/08/17 03:14:40;;;;;;;95.38;68.18;;;;;;;;;;4952003;28;20035;-78
2022/08/17 03:17:08;;;;;;;76.32;55.45;;;;;;;;;;4967637;28;20035;-78
2022/08/17 03:19:34;;;;;;;71.30;55.75;;;;;;;;;;4952425;28;20049;-78
2022/08/17 03:22:00;;;;;;;56.00;44.75;;;;;;;;;;4975629;28;20035;-82
2022/08/17 03:24:28;;;;;;;48.92;39.95;;;;;;;;;;4969493;28;20050;-78
2022/08/17 03:26:54;;;;;;;52.92;43.90;;;;;;;;;;5034560;28;20496;-79
2022/08/17 03:29:19;;;;;;;74.63;55.42;;;;;;;;;;4960834;28;20070;-76
2022/08/17 03:31:46;;;;;;;76.22;59.72;;;;;;;;;;4965799;28;20122;-78
2022/08/17 03:34:12;;;;;;;69.57;54.05;;;;;;;;;;4968612;28;20042;-78
2022/08/17 03:36:38;;;;;;;77.65;57.88;;;;;;;;;;4949826;28;20476;-85
2022/08/17 03:39:04;;;;;;;76.63;59.67;;;;;;;;;;4955404;28;20041;-85
2022/08/17 03:41:30;;;;;;;84.25;62.45;;;;;;;;;;4968317;28;20039;-84
2022/08/17 03:43:56;;;;;;;81.40;59.97;;;;;;;;;;4952794;28;20035;-87
2022/08/17 03:57:40;;;;;;;77.53;58.17;;;;;;;;;;4955638;28;20045;-86
2022/08/17 04:00:07;;;;;;;79.65;59.67;;;;;;;;;;4969284;28;20034;-86
2022/08/17 04:02:33;;;;;;;75.25;58.00;;;;;;;;;;4968160;28;20461;-77
2022/08/17 04:05:00;;;;;;;72.72;56.80;;;;;;;;;;4951509;28;20244;-77
2022/08/17 04:07:27;;;;;;;71.55;54.47;;;;;;;;;;4947335;28;20041;-78
2022/08/17 04:09:53;;;;;;;65.18;50.70;;;;;;;;;;4964855;28;20106;-77
2022/08/17 04:12:20;;;;;;;64.18;49.05;;;;;;;;;;4966173;28;20130;-78
2022/08/17 04:14:46;;;;;;;61.30;46.72;;;;;;;;;;4950632;28;20100;-77
2022/08/17 04:17:12;;;;;;;57.72;44.97;;;;;;;;;;4972923;28;20118;-77
2022/08/17 04:19:38;;;;;;;55.53;43.80;;;;;;;;;;4969304;28;20085;-77
2022/08/17 04:22:05;;;;;;;62.42;46.78;;;;;;;;;;4967921;28;20130;-77
2022/08/17 04:24:32;;;;;;;71.93;48.03;;;;;;;;;;4952779;28;20039;-78
2022/08/17 04:26:58;;;;;;;74.97;52.15;;;;;;;;;;4967886;28;20084;-78
2022/08/17 04:29:27;;;;;;;78.10;54.10;;;;;;;;;;4951272;28;20043;-78
2022/08/17 04:31:53;;;;;;;85.35;57.90;;;;;;;;;;4966054;28;20061;-78
2022/08/17 04:34:19;;;;;;;89.95;61.58;;;;;;;;;;4965156;28;20026;-84
2022/08/17 04:36:45;;;;;;;92.68;60.83;;;;;;;;;;4967367;28;20027;-86
2022/08/17 04:39:11;;;;;;;95.38;61.50;;;;;;;;;;5015905;28;20126;-87
2022/08/17 04:44:22;;;;;;;92.13;60.70;;;;;;;;;;4986810;28;20054;-79
2022/08/17 04:46:48;;;;;;;101.90;63.85;;;;;;;;;;4959992;28;20085;-79
2022/08/17 04:49:14;;;;;;;85.75;58.67;;;;;;;;;;4968478;28;20035;-79
2022/08/17 04:51:45;;;;;;;88.20;58.38;;;;;;;;;;4966007;28;20522;-85
2022/08/17 04:54:12;;;;;;;86.78;58.65;;;;;;;;;;4968644;28;20396;-85
2022/08/17 04:56:38;;;;;;;84.97;57.13;;;;;;;;;;4967955;28;20077;-86
2022/08/17 04:59:08;;;;;;;83.40;56.40;;;;;;;;;;4951473;28;20042;-78
2022/08/17 05:01:35;;;;;;;77.07;52.70;;;;;;;;;;4965859;28;20038;-78
2022/08/17 05:04:03;;;;;;;82.18;55.25;;;;;;;;;;4967493;28;20035;-78
2022/08/17 05:06:29;;;;;;;78.95;52.05;;;;;;;;;;4964512;28;20027;-77
2022/08/17 05:08:56;;;;;;;80.53;53.33;;;;;;;;;;4960813;28;20050;-78
2022/08/17 05:11:24;;;;;;;76.00;50.08;;;;;;;;;;4969870;28;20415;-77
2022/08/17 05:13:50;;;;;;;74.78;49.13;;;;;;;;;;4966680;28;20054;-78
2022/08/17 05:16:17;;;;;;;72.22;46.90;;;;;;;;;;4950337;28;20039;-78
2022/08/17 05:18:43;;;;;;;68.18;46.75;;;;;;;;;;4967840;28;20080;-78
2022/08/17 05:21:09;;;;;;;72.00;47.88;;;;;;;;;;4967015;28;20050;-78
2022/08/17 05:23:35;;;;;;;69.97;47.95;;;;;;;;;;5035277;28;20038;-78
2022/08/17 05:26:01;;;;;;;72.97;49.53;;;;;;;;;;5032885;28;20035;-79
2022/08/17 05:28:28;;;;;;;72.50;49.90;;;;;;;;;;4967264;28;20104;-78
2022/08/17 05:30:58;;;;;;;67.35;46.10;;;;;;;;;;4967267;28;20027;-78
2022/08/17 05:33:26;;;;;;;67.93;46.90;;;;;;;;;;4967014;28;20057;-79
2022/08/17 05:35:53;;;;;;;75.65;50.25;;;;;;;;;;4963344;28;20035;-78
2022/08/17 05:38:21;;;;;;;66.97;47.15;;;;;;;;;;4967334;28;20027;-78
2022/08/17 05:40:47;;;;;;;70.90;47.38;;;;;;;;;;4969415;28;20053;-78
2022/08/17 05:43:18;;;;;;;68.05;48.15;;;;;;;;;;4971907;28;20039;-78
2022/08/17 05:45:47;;;;;;;68.95;47.65;;;;;;;;;;4971240;28;20054;-77
2022/08/17 05:48:15;;;;;;;69.13;46.08;;;;;;;;;;4969862;28;20031;-77
2022/08/17 05:50:41;;;;;;;65.15;47.03;;;;;;;;;;4968427;28;20514;-78
2022/08/17 05:53:17;;;;;;;67.82;47.55;;;;;;;;;;4952669;28;20054;-78
2022/08/17 05:56:02;;;;;;;62.78;46.28;;;;;;;;;;5031899;28;20049;-78
2022/08/17 05:58:35;;;;;;;61.53;46.28;;;;;;;;;;4969485;28;20058;-78
2022/08/17 06:01:13;;;;;;;56.47;43.38;;;;;;;;;;5042921;28;20038;-78
2022/08/17 06:03:47;;;;;;;55.05;42.10;;;;;;;;;;4962047;28;20046;-79
2022/08/17 06:06:19;;;;;;;60.95;45.03;;;;;;;;;;4970619;28;20097;-79
2022/08/17 06:09:03;;;;;;;55.40;43.00;;;;;;;;;;4976939;28;20070;-78
2022/08/17 06:11:38;;;;;;;55.50;41.95;;;;;;;;;;4962726;28;20027;-78
2022/08/17 06:14:23;;;;;;;53.78;42.83;;;;;;;;;;4961178;28;20043;-80
2022/08/17 06:16:52;;;;;;;56.50;43.25;;;;;;;;;;4965665;28;20031;-78
2022/08/17 06:19:31;;;;;;;56.00;40.10;;;;;;;;;;4970853;28;20476;-85
2022/08/17 06:21:57;;;;;;;45.83;36.65;;;;;;;;;;4971972;28;20065;-86
2022/08/17 06:24:23;;;;;;;37.72;33.55;;;;;;;;;;4969756;28;20076;-86
2022/08/17 06:26:49;;;;;;;33.60;29.70;;;;;;;;;;4980209;28;20060;-86
2022/08/17 06:29:19;;;;;;;37.22;30.15;;;;;;;;;;4967959;28;20027;-85
2022/08/17 06:31:45;;;;;;;32.75;29.15;;;;;;;;;;4970199;28;21546;-85
2022/08/17 06:34:11;;;;;;;30.10;25.13;;;;;;;;;;4974315;28;20035;-87
2022/08/17 06:36:40;;;;;;;27.85;24.85;;;;;;;;;;4970070;28;20078;-86
2022/08/17 06:39:12;;;;;;;27.75;24.35;;;;;;;;;;4976283;28;20070;-86
2022/08/17 06:41:54;;;;;;;24.75;22.08;;;;;;;;;;4956369;28;20490;-88
2022/08/17 06:44:34;;;;;;;24.30;20.88;;;;;;;;;;4969864;28;20138;-87
2022/08/17 06:47:07;;;;;;;23.13;20.63;;;;;;;;;;4990453;28;20037;-88
2022/08/17 06:49:39;;;;;;;22.05;19.85;;;;;;;;;;4995028;28;20035;-87
2022/08/17 06:52:19;;;;;;;24.65;20.30;;;;;;;;;;4969466;28;20083;-88
2022/08/17 06:54:57;;;;;;;21.45;19.20;;;;;;;;;;4990675;28;20022;-88
2022/08/17 06:57:27;;;;;;;24.48;19.42;;;;;;;;;;4991969;28;20039;-88
2022/08/17 06:59:55;;;;;;;23.13;20.73;;;;;;;;;;4993534;28;20137;-85
2022/08/17 07:02:35;;;;;;;23.20;20.80;;;;;;;;;;4991380;28;20030;-87
2022/08/17 07:05:01;;;;;;;23.88;19.92;;;;;;;;;;5003582;28;20099;-85
2022/08/17 07:10:15;;;;;;;24.05;20.23;;;;;;;;;;4980791;28;20065;-87
2022/08/17 07:12:43;;;;;;;23.30;20.80;;;;;;;;;;4954274;28;20100;-87
2022/08/17 07:15:19;;;;;;;23.95;20.75;;;;;;;;;;4969993;28;20058;-86
2022/08/17 07:17:48;;;;;;;21.55;18.20;;;;;;;;;;4969219;28;20391;-87
2022/08/17 07:20:19;;;;;;;17.88;16.05;;;;;;;;;;4969348;28;20019;-86
2022/08/17 07:22:54;;;;;;;16.17;14.30;;;;;;;;;;4979368;28;20420;-86
2022/08/17 07:25:20;;;;;;;17.42;13.85;;;;;;;;;;4961776;28;20373;-86
2022/08/17 07:27:51;;;;;;;15.70;13.60;;;;;;;;;;4966117;28;20088;-87
2022/08/17 07:30:18;;;;;;;;;;;;;;;;;;4959087;28;20175;-86
2022/08/17 07:32:44;;;;;;;12.70;10.40;;;;;;;;;;4959562;28;20070;-87
2022/08/17 07:35:10;;;;;;;11.25;9.55;;;;;;;;;;4969777;28;20209;-86
2022/08/17 07:37:52;;;;;;;12.77;9.63;;;;;;;;;;5032679;28;20023;-84
2022/08/17 07:40:18;;;;;;;9.95;8.80;;;;;;;;;;4962245;28;20027;-86
2022/08/17 07:43:14;;;;;;;10.00;8.98;;;;;;;;;;4967346;28;20502;-85
2022/08/17 07:48:37;;;;;;;11.23;10.13;;;;;;;;;;4967904;28;20088;-85
2022/08/17 07:51:19;;;;;;;14.40;11.23;;;;;;;;;;4965443;28;20031;-85
2022/08/17 07:53:45;;;;;;;13.27;11.60;;;;;;;;;;4961150;28;20167;-85
2022/08/17 07:56:30;;;;;;;14.68;11.90;;;;;;;;;;4969243;28;20031;-85
2022/08/17 07:59:05;;;;;;;15.10;13.00;;;;;;;;;;4967970;28;20061;-85
2022/08/17 08:01:36;;;;;;;17.75;13.57;;;;;;;;;;4968588;28;20361;-78
2022/08/17 08:04:15;;;;;;;22.00;15.00;;;;;;;;;;4967213;28;20031;-78
2022/08/17 08:06:46;;;;;;;18.02;15.50;;;;;;;;;;4955707;28;20058;-78
2022/08/17 08:09:27;;;;;;;21.35;16.92;;;;;;;;;;4964578;28;20039;-86
2022/08/17 08:11:53;;;;;;;;;;;;;;;;;;4966632;28;20249;-86
2022/08/17 08:14:38;;;;;;;19.23;17.23;;;;;;;;;;4966884;28;19957;-86
2022/08/17 08:17:05;;;;;;;20.50;18.17;;;;;;;;;;4973472;28;20025;-78
2022/08/17 08:19:32;;;;;;;22.10;17.60;;;;;;;;;;4949180;28;20035;-78
2022/08/17 08:22:14;;;;;;;23.70;19.35;;;;;;;;;;5034359;28;20069;-78
2022/08/17 08:25:00;;;;;;;22.95;19.63;;;;;;;;;;4952300;28;20027;-78
2022/08/17 08:27:26;;;;;;;30.92;20.25;;;;;;;;;;4950717;28;20023;-78
2022/08/17 08:30:07;;;;;;;23.13;20.40;;;;;;;;;;4969078;28;20029;-76
2022/08/17 08:32:54;;;;;;;28.83;22.20;;;;;;;;;;4973703;28;20030;-78
2022/08/17 08:35:25;;;;;;;26.88;22.90;;;;;;;;;;4941000;28;20043;-78
2022/08/17 08:38:10;;;;;;;27.58;24.52;;;;;;;;;;4966235;28;20214;-77
2022/08/17 08:40:51;;;;;;;31.88;24.13;;;;;;;;;;4964270;28;20027;-78
2022/08/17 08:43:34;;;;;;;35.22;25.17;;;;;;;;;;4950000;28;20034;-78
2022/08/17 08:46:19;;;;;;;35.22;27.80;;;;;;;;;;4968655;28;20026;-78
2022/08/17 08:48:55;;;;;;;30.45;27.10;;;;;;;;;;4967710;28;20026;-79
2022/08/17 08:51:28;;;;;;;31.08;26.50;;;;;;;;;;4960675;28;20043;-78
2022/08/17 08:53:54;;;;;;;33.45;27.00;;;;;;;;;;4948344;28;20500;-79
2022/08/17 08:56:43;;;;;;;38.63;30.30;;;;;;;;;;4962136;28;20058;-78
2022/08/17 08:59:15;;;;;;;33.67;27.90;;;;;;;;;;4965337;28;20034;-77
2022/08/17 09:01:47;;;;;;;36.75;25.77;;;;;;;;;;4951890;28;20053;-78
2022/08/17 09:04:34;;;;;;;29.65;24.85;;;;;;;;;;4965794;28;20035;-77
2022/08/17 09:07:19;;;;;;;24.83;21.35;;;;;;;;;;4962568;28;20104;-77
2022/08/17 09:09:54;;;;;;;27.92;21.75;;;;;;;;;;4965827;28;20112;-77
2022/08/17 09:12:40;;;;;;;23.52;19.02;;;;;;;;;;4957756;28;20503;-77
2022/08/17 09:15:12;;;;;;;24.20;18.17;;;;;;;;;;5041631;28;20093;-77
2022/08/17 09:17:42;;;;;;;20.88;16.90;;;;;;;;;;4953125;28;20100;-77
2022/08/17 09:20:24;;;;;;;19.65;17.25;;;;;;;;;;4958115;28;20039;-79
2022/08/17 09:22:53;;;;;;;23.52;15.57;;;;;;;;;;4957253;28;20024;-77
2022/08/17 09:25:21;;;;;;;19.75;15.20;;;;;;;;;;4968427;28;20031;-78
2022/08/17 09:27:58;;;;;;;25.27;16.63;;;;;;;;;;4970103;28;20105;-78
2022/08/17 09:30:25;;;;;;;19.17;16.17;;;;;;;;;;4976690;28;20445;-75
2022/08/17 09:33:10;;;;;;;17.90;16.10;;;;;;;;;;4969328;28;20022;-76
2022/08/17 09:35:38;;;;;;;20.50;15.20;;;;;;;;;;4972731;28;20039;-76
2022/08/17 09:38:12;;;;;;;15.93;13.98;;;;;;;;;;4969358;28;20462;-77
2022/08/17 09:40:48;;;;;;;20.20;14.55;;;;;;;;;;4970747;28;20031;-77
2022/08/17 09:43:20;;;;;;;24.40;16.17;;;;;;;;;;4969627;28;20039;-76
2022/08/17 09:45:56;;;;;;;18.60;16.52;;;;;;;;;;4981584;28;20023;-76
2022/08/17 09:48:32;;;;;;;23.02;20.23;;;;;;;;;;4952411;28;20030;-76
2022/08/17 09:50:58;;;;;;;34.50;23.85;;;;;;;;;;4963176;28;20033;-77
2022/08/17 09:53:24;;;;;;;39.50;24.52;;;;;;;;;;4967354;28;20578;-77
2022/08/17 09:56:08;;;;;;;30.92;22.95;;;;;;;;;;4969694;28;20096;-78
2022/08/17 09:58:35;;;;;;;40.95;26.70;;;;;;;;;;4943273;28;20027;-79
2022/08/17 10:01:05;;;;;;;37.13;25.73;;;;;;;;;;4949312;28;20092;-79
2022/08/17 10:03:40;;;;;;;29.02;24.23;;;;;;;;;;4972046;28;20113;-79
2022/08/17 10:06:12;;;;;;;26.98;22.85;;;;;;;;;;4962604;28;20055;-79
2022/08/17 10:09:07;;;;;;;31.60;23.95;;;;;;;;;;4956620;28;20039;-78
2022/08/17 10:14:23;;;;;;;25.10;21.33;;;;;;;;;;4993100;28;20053;-78
2022/08/17 10:17:09;;;;;;;25.73;21.35;;;;;;;;;;5017471;28;20114;-78
2022/08/17 10:19:35;;;;;;;26.33;22.33;;;;;;;;;;4960970;28;20054;-78
2022/08/17 10:27:42;;;;;;;26.02;20.42;;;;;;;;;;4965890;28;20077;-77
2022/08/17 10:30:10;;;;;;;19.55;17.52;;;;;;;;;;4972056;28;20511;-77
2022/08/17 10:32:36;;;;;;;22.02;19.33;;;;;;;;;;4966825;28;20045;-77
2022/08/17 10:35:07;;;;;;;20.30;18.15;;;;;;;;;;4969261;28;20102;-78
2022/08/17 10:37:34;;;;;;;22.98;17.08;;;;;;;;;;4967126;28;20038;-77
2022/08/17 10:40:16;;;;;;;23.48;18.58;;;;;;;;;;4968390;28;20035;-78
2022/08/17 10:42:45;;;;;;;20.52;17.77;;;;;;;;;;4963571;28;20717;-86
2022/08/17 10:45:14;;;;;;;19.27;15.10;;;;;;;;;;4968569;28;20101;-86
2022/08/17 10:47:52;;;;;;;17.50;15.52;;;;;;;;;;4982653;28;20023;-78
2022/08/17 10:50:48;;;;;;;20.38;15.68;;;;;;;;;;4959874;28;20030;-79
2022/08/17 10:53:32;;;;;;;20.75;16.33;;;;;;;;;;4970205;28;20042;-78
2022/08/17 10:56:14;;;;;;;19.70;16.13;;;;;;;;;;4963303;28;20035;-85
2022/08/17 10:59:06;;;;;;;19.95;16.58;;;;;;;;;;4967853;28;20458;-87
2022/08/17 11:01:32;;;;;;;21.40;17.13;;;;;;;;;;4967056;28;20061;-86
2022/08/17 11:04:03;;;;;;;19.48;14.95;;;;;;;;;;4967237;28;20035;-86
2022/08/17 11:06:29;;;;;;;16.98;15.13;;;;;;;;;;4947255;29;20031;-78
2022/08/17 11:08:58;;;;;;;17.42;14.93;;;;;;;;;;4972470;28;20114;-85
2022/08/17 11:11:46;;;;;;;18.15;14.82;;;;;;;;;;4965456;28;20041;-79
2022/08/17 11:14:34;;;;;;;18.23;14.65;;;;;;;;;;4949248;28;20031;-78
2022/08/17 11:17:05;;;;;;;18.35;14.18;;;;;;;;;;4968250;28;20312;-86
2022/08/17 11:19:53;;;;;;;17.98;14.65;;;;;;;;;;4964974;28;20031;-86
2022/08/17 11:22:19;;;;;;;17.30;14.20;;;;;;;;;;4964869;28;20161;-86
2022/08/17 11:24:46;;;;;;;18.55;15.15;;;;;;;;;;4961767;28;20469;-86
2022/08/17 11:27:22;;;;;;;17.00;13.30;;;;;;;;;;4966570;28;20023;-81
2022/08/17 11:29:55;;;;;;;18.90;15.05;;;;;;;;;;4962758;28;20033;-86
2022/08/17 11:32:36;;;;;;;17.25;14.25;;;;;;;;;;4962691;28;20023;-86
2022/08/17 11:35:20;;;;;;;20.75;15.82;;;;;;;;;;4960900;28;20039;-86
2022/08/17 11:38:04;;;;;;;20.45;15.23;;;;;;;;;;4957339;28;20095;-86
2022/08/17 11:40:33;;;;;;;29.35;15.63;;;;;;;;;;4968531;28;20535;-86
2022/08/17 11:43:28;;;;;;;19.70;16.27;;;;;;;;;;4968950;28;20084;-86
2022/08/17 11:46:01;;;;;;;22.33;16.90;;;;;;;;;;4964800;28;20035;-78
2022/08/17 11:51:32;;;;;;;18.90;15.60;;;;;;;;;;4966211;28;20114;-77
2022/08/17 11:53:58;;;;;;;23.38;17.92;;;;;;;;;;4950298;28;20031;-78
2022/08/17 11:56:40;;;;;;;22.13;17.45;;;;;;;;;;4952408;28;20545;-77
2022/08/17 11:59:24;;;;;;;24.55;19.10;;;;;;;;;;4958384;28;20027;-78
2022/08/17 12:01:54;;;;;;;23.25;19.08;;;;;;;;;;4962044;28;20035;-77
2022/08/17 12:04:20;;;;;;;31.17;21.93;;;;;;;;;;4949031;28;20073;-78
2022/08/17 12:07:08;;;;;;;24.80;20.70;;;;;;;;;;4967272;28;20027;-84
2022/08/17 12:09:38;;;;;;;29.70;22.40;;;;;;;;;;4966682;28;20043;-84
2022/08/17 12:12:11;;;;;;;28.75;24.15;;;;;;;;;;4944005;28;20182;-85
2022/08/17 12:14:38;;;;;;;27.45;23.33;;;;;;;;;;4968255;28;20458;-86
2022/08/17 12:17:09;;;;;;;27.67;24.60;;;;;;;;;;4968389;28;20372;-87
2022/08/17 12:19:35;;;;;;;;;;;;;;;;;;4969535;28;20038;-78
2022/08/17 12:22:19;;;;;;;35.28;27.45;;;;;;;;;;4950014;28;19910;-78
2022/08/17 12:24:54;;;;;;;35.85;28.38;;;;;;;;;;4944557;28;20039;-78
2022/08/17 12:27:22;;;;;;;33.53;29.95;;;;;;;;;;4959637;28;20065;-78
2022/08/17 12:29:48;;;;;;;33.17;29.58;;;;;;;;;;4967079;28;20037;-79
2022/08/17 12:32:18;;;;;;;40.38;32.30;;;;;;;;;;4949061;28;20035;-89
2022/08/17 12:34:45;;;;;;;42.15;34.33;;;;;;;;;;4968122;28;20034;-88
2022/08/17 12:37:19;;;;;;;45.08;33.90;;;;;;;;;;4967327;28;20035;-87
2022/08/17 12:40:00;;;;;;;41.35;33.95;;;;;;;;;;4968787;28;20066;-87
2022/08/17 12:42:28;;;;;;;37.92;32.03;;;;;;;;;;4970480;28;20031;-86
2022/08/17 12:44:55;;;;;;;37.47;31.00;;;;;;;;;;4962701;28;20027;-89
2022/08/17 12:47:21;;;;;;;38.72;30.92;;;;;;;;;;4962119;28;20027;-87
2022/08/17 12:49:52;;;;;;;36.00;30.75;;;;;;;;;;4965406;28;20055;-89
2022/08/17 12:52:18;;;;;;;;;;;;;;;;;;4968324;28;20068;-89
2022/08/17 12:54:50;;;;;;;40.10;31.38;;;;;;;;;;4971943;28;19918;-88
2022/08/17 12:57:26;;;;;;;46.85;32.60;;;;;;;;;;4979305;28;20122;-88
2022/08/17 12:59:54;;;;;;;39.65;33.10;;;;;;;;;;4964024;28;20510;-89
2022/08/17 13:02:52;;;;;;;45.22;33.33;;;;;;;;;;4969213;28;20023;-88
2022/08/17 13:05:21;;;;;;;47.85;36.28;;;;;;;;;;4978396;28;20520;-88
2022/08/17 13:07:47;;;;;;;43.95;34.00;;;;;;;;;;4968764;28;20034;-88
2022/08/17 13:10:33;;;;;;;43.70;35.35;;;;;;;;;;4967720;28;20035;-89
2022/08/17 13:13:04;;;;;;;43.85;33.33;;;;;;;;;;4962027;28;20058;-87
2022/08/17 13:15:33;;;;;;;45.28;34.65;;;;;;;;;;4957054;28;20023;-76
2022/08/17 13:18:03;;;;;;;44.20;34.47;;;;;;;;;;4964714;28;20552;-88
2022/08/17 13:20:29;;;;;;;45.05;34.97;;;;;;;;;;4963585;28;20023;-87
2022/08/17 13:22:56;;;;;;;47.05;35.75;;;;;;;;;;4966629;28;20399;-86
2022/08/17 13:25:23;;;;;;;41.13;34.65;;;;;;;;;;4963911;28;20848;-87
2022/08/17 13:27:51;;;;;;;40.22;31.27;;;;;;;;;;4968852;28;20394;-88
2022/08/17 13:30:22;;;;;;;35.45;30.00;;;;;;;;;;4980608;28;20027;-88
2022/08/17 13:32:48;;;;;;;42.15;30.00;;;;;;;;;;4968009;28;20034;-76
2022/08/17 13:35:29;;;;;;;38.90;29.38;;;;;;;;;;4964527;28;20046;-76
2022/08/17 13:37:57;;;;;;;37.47;29.38;;;;;;;;;;4967670;28;20038;-89
2022/08/17 13:40:23;;;;;;;37.70;29.70;;;;;;;;;;4972011;28;20047;-76
2022/08/17 13:42:54;;;;;;;36.28;29.15;;;;;;;;;;4967471;28;20030;-90
2022/08/17 13:45:29;;;;;;;33.53;27.20;;;;;;;;;;4965889;28;20045;-89
2022/08/17 13:48:08;;;;;;;43.67;27.70;;;;;;;;;;4968249;28;20085;-89
2022/08/17 13:50:35;;;;;;;31.42;26.50;;;;;;;;;;4964899;28;20033;-88
2022/08/17 13:53:01;;;;;;;35.15;27.13;;;;;;;;;;4967602;28;20051;-77
2022/08/17 13:55:28;;;;;;;35.47;28.65;;;;;;;;;;4967091;28;20042;-88
2022/08/17 13:57:55;;;;;;;37.03;30.70;;;;;;;;;;4967200;28;20445;-87
2022/08/17 14:00:34;;;;;;;39.08;31.83;;;;;;;;;;5040449;28;20043;-88
2022/08/17 14:03:01;;;;;;;37.17;29.00;;;;;;;;;;4965958;28;20038;-89
2022/08/17 14:05:27;;;;;;;42.08;30.67;;;;;;;;;;4969145;28;20066;-90
2022/08/17 14:07:55;;;;;;;36.45;30.08;;;;;;;;;;4952908;28;20049;-76
2022/08/17 14:10:21;;;;;;;34.03;29.48;;;;;;;;;;4966862;28;20138;-77
2022/08/17 14:12:49;;;;;;;36.75;29.55;;;;;;;;;;4962027;28;20130;-76
2022/08/17 14:15:16;;;;;;;36.58;28.58;;;;;;;;;;4975117;28;20047;-77
2022/08/17 14:17:42;;;;;;;40.10;31.13;;;;;;;;;;4958086;28;20035;-76
2022/08/17 14:20:10;;;;;;;99.63;35.55;;;;;;;;;;4965348;28;20039;-76
2022/08/17 14:22:38;;;;;;;66.45;32.90;;;;;;;;;;4980955;28;20030;-91
2022/08/17 14:25:05;;;;;;;47.78;33.55;;;;;;;;;;4990106;28;20031;-93
2022/08/17 14:30:36;;;;;;;43.85;34.65;;;;;;;;;;4977818;28;20419;-93
2022/08/17 14:33:04;;;;;;;43.25;32.72;;;;;;;;;;4981856;28;20031;-93
2022/08/17 14:38:53;;;;;;;47.28;36.47;;;;;;;;;;4969325;28;20435;-92
2022/08/17 14:41:22;;;;;;;42.00;33.15;;;;;;;;;;5001605;28;20046;-92
2022/08/17 14:43:48;;;;;;;39.92;34.65;;;;;;;;;;4989015;28;20027;-91
2022/08/17 14:46:14;;;;;;;40.10;33.80;;;;;;;;;;4983463;28;20086;-92
2022/08/17 14:48:40;;;;;;;43.08;34.10;;;;;;;;;;4961998;28;20043;-92
2022/08/17 14:51:06;;;;;;;42.30;32.83;;;;;;;;;;4993701;28;20023;-93
2022/08/17 14:53:32;;;;;;;39.35;32.10;;;;;;;;;;4985933;28;20075;-92
2022/08/17 14:56:00;;;;;;;40.42;34.20;;;;;;;;;;4983576;28;20035;-77
2022/08/17 14:58:28;;;;;;;44.30;35.50;;;;;;;;;;4972488;28;20023;-77
2022/08/17 15:00:54;;;;;;;36.55;32.60;;;;;;;;;;4962848;28;20080;-77
2022/08/17 15:03:21;;;;;;;36.43;32.50;;;;;;;;;;4948526;28;20035;-77
2022/08/17 15:05:47;;;;;;;40.97;33.05;;;;;;;;;;4965733;28;20085;-77
2022/08/17 15:08:15;;;;;;;38.45;32.47;;;;;;;;;;4973298;28;20059;-89
2022/08/17 15:10:41;;;;;;;41.80;33.17;;;;;;;;;;4964411;28;20019;-89
2022/08/17 15:13:26;;;;;;;38.08;33.83;;;;;;;;;;4971355;28;20687;-92
2022/08/17 15:16:12;;;;;;;33.35;29.70;;;;;;;;;;5069965;28;20033;-91
2022/08/17 15:18:38;;;;;;;35.38;29.25;;;;;;;;;;4971332;28;20027;-92